createdAt,value
2018-03-30T00:00:08.576Z,11.18
2018-03-30T00:02:36.079Z,10.50
2018-03-30T00:05:03.940Z,11.40
2018-03-30T00:07:32.169Z,7.12
2018-03-30T00:09:59.647Z,9.38
2018-03-30T00:12:27.131Z,8.52
2018-03-30T00:14:55.022Z,10.25
2018-03-30T00:17:22.907Z,7.57
2018-03-30T00:19:50.755Z,9.85
2018-03-30T00:22:18.241Z,10.75
2018-03-30T00:24:45.715Z,10.60
2018-03-30T00:27:13.504Z,9.32
2018-03-30T00:29:41.737Z,10.43
2018-03-30T00:32:09.211Z,10.48
2018-03-30T00:34:37.463Z,11.07
2018-03-30T00:37:04.971Z,11.90
2018-03-30T00:39:32.863Z,11.12
2018-03-30T00:42:00.751Z,10.82
2018-03-30T00:44:28.231Z,8.30
2018-03-30T00:46:55.719Z,7.93
2018-03-30T00:49:23.567Z,9.98
2018-03-30T00:51:51.051Z,10.45
2018-03-30T00:54:19.728Z,9.75
2018-03-30T00:56:47.980Z,11.32
2018-03-30T00:59:15.456Z,9.55
2018-03-30T01:01:42.984Z,10.00
2018-03-30T01:04:10.895Z,10.98
2018-03-30T01:06:39.080Z,10.40
2018-03-30T01:09:06.547Z,10.38
2018-03-30T01:11:34.019Z,6.57
2018-03-30T01:14:01.495Z,11.20
2018-03-30T01:16:28.961Z,11.70
2018-03-30T01:18:56.751Z,12.40
2018-03-30T01:21:24.223Z,11.85
2018-03-30T01:23:51.784Z,13.70
2018-03-30T01:26:19.244Z,14.02
2018-03-30T01:28:46.713Z,14.10
2018-03-30T01:31:14.500Z,11.35
2018-03-30T01:33:43.106Z,9.95
2018-03-30T01:36:10.974Z,15.85
2018-03-30T01:38:38.603Z,15.50
2018-03-30T01:41:06.088Z,17.10
2018-03-30T01:43:33.618Z,15.68
2018-03-30T01:46:01.673Z,19.42
2018-03-30T01:48:29.249Z,18.00
2018-03-30T01:50:56.715Z,20.25
2018-03-30T01:53:24.205Z,19.70
2018-03-30T01:55:52.126Z,19.05
2018-03-30T01:58:20.733Z,16.60
2018-03-30T02:00:48.204Z,17.95
2018-03-30T02:03:15.712Z,15.48
2018-03-30T02:05:43.285Z,18.55
2018-03-30T02:08:11.180Z,14.87
2018-03-30T02:10:38.711Z,15.27
2018-03-30T02:13:06.185Z,17.55
2018-03-30T02:15:33.659Z,18.65
2018-03-30T02:18:01.184Z,18.20
2018-03-30T02:20:28.959Z,20.25
2018-03-30T02:22:56.439Z,20.27
2018-03-30T02:25:23.916Z,18.67
2018-03-30T02:27:51.399Z,18.85
2018-03-30T02:30:18.893Z,13.32
2018-03-30T02:32:47.105Z,14.27
2018-03-30T02:35:14.564Z,19.90
2018-03-30T02:37:42.803Z,19.45
2018-03-30T02:40:10.300Z,17.83
2018-03-30T02:42:38.221Z,17.95
2018-03-30T02:45:06.028Z,18.30
2018-03-30T02:47:34.314Z,18.90
2018-03-30T02:50:02.189Z,13.00
2018-03-30T02:52:30.438Z,19.20
2018-03-30T02:54:57.912Z,18.52
2018-03-30T02:57:26.484Z,17.95
2018-03-30T02:59:54.365Z,12.75
2018-03-30T03:02:22.599Z,19.98
2018-03-30T03:04:50.129Z,20.20
2018-03-30T03:07:17.632Z,19.20
2018-03-30T03:09:45.502Z,15.50
2018-03-30T03:12:12.971Z,16.27
2018-03-30T03:14:41.215Z,17.90
2018-03-30T03:17:08.695Z,17.65
2018-03-30T03:19:36.163Z,16.55
2018-03-30T03:22:04.744Z,16.08
2018-03-30T03:24:32.979Z,14.43
2018-03-30T03:27:00.444Z,18.10
2018-03-30T03:29:27.925Z,19.80
2018-03-30T03:31:56.160Z,17.12
2018-03-30T03:34:24.603Z,16.40
2018-03-30T03:36:52.088Z,18.30
2018-03-30T03:39:19.575Z,16.67
2018-03-30T03:41:47.819Z,18.27
2018-03-30T03:44:15.688Z,16.40
2018-03-30T03:46:43.445Z,16.98
2018-03-30T03:49:10.935Z,14.50
2018-03-30T03:51:38.847Z,15.73
2018-03-30T03:54:06.336Z,13.25
2018-03-30T03:56:34.946Z,12.52
2018-03-30T03:59:02.438Z,14.68
2018-03-30T04:01:30.676Z,14.68
2018-03-30T04:03:58.208Z,12.55
2018-03-30T04:06:26.830Z,13.80
2018-03-30T04:08:54.317Z,13.68
2018-03-30T04:11:22.181Z,14.40
2018-03-30T04:13:50.488Z,13.20
2018-03-30T04:16:17.983Z,14.00
2018-03-30T04:18:45.506Z,10.55
2018-03-30T04:21:12.968Z,14.00
2018-03-30T04:23:40.792Z,11.55
2018-03-30T04:26:09.016Z,13.85
2018-03-30T04:28:36.490Z,12.30
2018-03-30T04:31:03.977Z,12.23
2018-03-30T04:33:31.876Z,12.55
2018-03-30T04:35:59.700Z,12.25
2018-03-30T04:38:27.197Z,12.13
2018-03-30T04:40:54.663Z,12.88
2018-03-30T04:43:22.139Z,12.90
2018-03-30T04:45:49.624Z,12.52
2018-03-30T04:48:17.130Z,9.82
2018-03-30T04:50:44.639Z,13.02
2018-03-30T04:53:12.103Z,11.75
2018-03-30T04:55:40.360Z,13.30
2018-03-30T04:58:07.836Z,12.55
2018-03-30T05:00:36.402Z,12.73
2018-03-30T05:03:04.268Z,12.40
2018-03-30T05:05:31.766Z,12.37
2018-03-30T05:07:59.562Z,12.00
2018-03-30T05:10:27.044Z,10.63
2018-03-30T05:12:55.310Z,11.95
2018-03-30T05:15:23.150Z,12.00
2018-03-30T05:17:51.744Z,12.25
2018-03-30T05:20:20.346Z,13.30
2018-03-30T05:22:48.238Z,12.65
2018-03-30T05:25:16.559Z,11.85
2018-03-30T05:27:44.381Z,12.18
2018-03-30T05:30:12.256Z,10.50
2018-03-30T05:32:39.756Z,11.85
2018-03-30T05:35:07.250Z,12.15
2018-03-30T05:37:35.585Z,12.27
2018-03-30T05:40:03.070Z,12.50
2018-03-30T05:42:30.703Z,12.95
2018-03-30T05:44:58.185Z,11.30
2018-03-30T05:47:25.690Z,12.30
2018-03-30T05:49:53.191Z,11.93
2018-03-30T05:52:20.964Z,11.55
2018-03-30T05:54:49.589Z,10.75
2018-03-30T05:57:17.854Z,11.65
2018-03-30T05:59:45.340Z,11.27
2018-03-30T06:02:12.835Z,11.50
2018-03-30T06:04:41.088Z,11.98
2018-03-30T06:07:08.945Z,13.25
2018-03-30T06:09:36.441Z,13.32
2018-03-30T06:12:04.687Z,12.32
2018-03-30T06:14:33.303Z,11.60
2018-03-30T06:17:01.148Z,8.60
2018-03-30T06:19:28.618Z,13.43
2018-03-30T06:21:56.082Z,10.35
2018-03-30T06:24:23.564Z,11.68
2018-03-30T06:26:51.802Z,12.23
2018-03-30T06:29:19.547Z,11.27
2018-03-30T06:31:47.650Z,9.60
2018-03-30T06:34:15.665Z,12.05
2018-03-30T06:36:43.175Z,12.25
2018-03-30T06:39:10.656Z,10.60
2018-03-30T06:41:38.571Z,10.77
2018-03-30T06:44:06.091Z,11.85
2018-03-30T06:46:34.339Z,10.68
2018-03-30T06:49:01.821Z,12.23
2018-03-30T06:51:30.055Z,12.02
2018-03-30T06:53:57.595Z,12.57
2018-03-30T06:56:25.064Z,11.38
2018-03-30T06:58:52.578Z,12.65
2018-03-30T07:01:20.087Z,12.00
2018-03-30T07:03:47.597Z,11.30
2018-03-30T07:06:15.115Z,12.80
2018-03-30T07:08:42.979Z,11.85
2018-03-30T07:11:10.497Z,11.57
2018-03-30T07:13:38.391Z,8.95
2018-03-30T07:16:05.861Z,11.45
2018-03-30T07:18:33.381Z,11.25
2018-03-30T07:21:00.856Z,8.50
2018-03-30T07:23:28.323Z,9.45
2018-03-30T07:25:55.799Z,13.25
2018-03-30T07:28:23.275Z,13.35
2018-03-30T07:30:51.550Z,10.07
2018-03-30T07:33:19.794Z,12.60
2018-03-30T07:35:47.875Z,9.77
2018-03-30T07:38:15.374Z,9.15
2018-03-30T07:40:43.680Z,8.10
2018-03-30T07:43:11.468Z,8.90
2018-03-30T07:45:38.973Z,6.70
2018-03-30T07:48:06.475Z,7.75
2018-03-30T07:50:34.013Z,7.50
2018-03-30T07:53:01.574Z,6.85
2018-03-30T07:55:29.308Z,6.50
2018-03-30T07:57:57.569Z,7.45
2018-03-30T08:00:25.909Z,6.35
2018-03-30T08:02:53.384Z,7.30
2018-03-30T08:05:20.852Z,10.27
2018-03-30T08:07:48.768Z,5.93
2018-03-30T08:10:16.254Z,8.23
2018-03-30T08:12:43.718Z,7.60
2018-03-30T08:15:11.241Z,8.15
2018-03-30T08:17:38.723Z,7.90
2018-03-30T08:20:06.543Z,7.37
2018-03-30T08:22:34.054Z,7.72
2018-03-30T08:25:01.472Z,7.60
2018-03-30T08:27:28.939Z,8.43
2018-03-30T08:29:56.426Z,8.30
2018-03-30T08:32:24.331Z,7.93
2018-03-30T08:34:51.918Z,9.00
2018-03-30T08:37:19.403Z,8.90
2018-03-30T08:39:46.920Z,7.07
2018-03-30T08:42:14.391Z,6.18
2018-03-30T08:44:41.953Z,6.05
2018-03-30T08:47:09.412Z,7.70
2018-03-30T08:49:36.887Z,7.87
2018-03-30T08:52:04.377Z,7.55
2018-03-30T08:54:32.642Z,8.02
2018-03-30T08:57:00.123Z,7.53
2018-03-30T08:59:28.350Z,5.30
2018-03-30T09:01:55.819Z,7.18
2018-03-30T09:04:23.737Z,7.43
2018-03-30T09:06:51.591Z,6.80
2018-03-30T09:09:19.851Z,7.03
2018-03-30T09:11:48.088Z,7.05
2018-03-30T09:14:15.880Z,6.43
2018-03-30T09:16:43.748Z,4.75
2018-03-30T09:19:11.213Z,6.30
2018-03-30T09:21:38.774Z,5.62
2018-03-30T09:24:06.238Z,5.22
2018-03-30T09:26:34.479Z,5.35
2018-03-30T09:29:02.647Z,5.05
2018-03-30T09:31:30.139Z,4.65
2018-03-30T09:33:58.007Z,5.87
2018-03-30T09:36:26.253Z,5.68
2018-03-30T09:38:54.119Z,5.78
2018-03-30T09:41:22.368Z,5.70
2018-03-30T09:43:49.844Z,6.00
2018-03-30T09:46:17.320Z,7.25
2018-03-30T09:48:44.799Z,6.75
2018-03-30T09:51:12.685Z,5.40
2018-03-30T09:53:40.174Z,7.12
2018-03-30T09:56:08.575Z,6.72
2018-03-30T09:58:36.056Z,6.95
2018-03-30T10:01:09.630Z,6.65
2018-03-30T10:03:46.142Z,7.10
2018-03-30T10:06:14.488Z,7.05
2018-03-30T10:08:41.955Z,7.70
2018-03-30T10:11:09.456Z,6.22
2018-03-30T10:13:36.937Z,7.72
2018-03-30T10:16:04.408Z,7.43
2018-03-30T10:18:31.897Z,5.60
2018-03-30T10:21:00.141Z,8.30
2018-03-30T10:23:27.653Z,8.50
2018-03-30T10:25:55.920Z,10.25
2018-03-30T10:28:23.406Z,7.93
2018-03-30T10:30:50.997Z,9.05
2018-03-30T10:33:18.481Z,9.70
2018-03-30T10:35:46.717Z,9.18
2018-03-30T10:38:14.191Z,8.40
2018-03-30T10:40:41.674Z,5.85
2018-03-30T10:43:09.481Z,7.25
2018-03-30T10:45:36.956Z,7.18
2018-03-30T10:48:04.436Z,8.90
2018-03-30T10:50:31.951Z,9.15
2018-03-30T10:52:59.452Z,8.38
2018-03-30T10:55:28.044Z,7.45
2018-03-30T10:57:55.539Z,7.80
2018-03-30T11:00:23.041Z,7.60
2018-03-30T11:02:51.643Z,6.72
2018-03-30T11:05:19.514Z,8.27
2018-03-30T11:07:47.770Z,7.07
2018-03-30T11:10:15.227Z,6.28
2018-03-30T11:12:42.704Z,6.00
2018-03-30T11:15:10.210Z,6.28
2018-03-30T11:17:37.695Z,6.10
2018-03-30T11:20:05.475Z,7.00
2018-03-30T11:22:33.731Z,7.22
2018-03-30T11:25:02.016Z,5.87
2018-03-30T11:27:29.532Z,8.40
2018-03-30T11:29:57.031Z,6.70
2018-03-30T11:32:24.516Z,7.22
2018-03-30T11:34:51.999Z,7.90
2018-03-30T11:37:19.480Z,7.20
2018-03-30T11:39:47.109Z,6.68
2018-03-30T11:42:14.596Z,6.90
2018-03-30T11:44:42.209Z,7.43
2018-03-30T11:47:09.607Z,7.62
2018-03-30T11:49:37.138Z,6.30
2018-03-30T11:52:04.627Z,8.82
2018-03-30T11:54:32.107Z,7.53
2018-03-30T11:56:59.615Z,5.20
2018-03-30T11:59:27.091Z,5.20
2018-03-30T21:45:04.692Z,3.60
2018-03-30T21:47:31.677Z,3.80
2018-03-30T21:49:58.798Z,3.70
2018-03-30T21:52:26.081Z,3.55
2018-03-30T21:54:54.008Z,4.10
2018-03-30T21:57:22.153Z,4.20
2018-03-30T21:59:49.228Z,4.40
2018-03-30T22:02:16.205Z,4.40
2018-03-30T22:04:43.589Z,4.37
2018-03-30T22:07:10.995Z,5.18
2018-03-30T22:09:38.039Z,5.20
2018-03-30T22:12:05.012Z,6.25
2018-03-30T22:14:32.288Z,5.87
2018-03-30T22:16:59.311Z,6.95
2018-03-30T22:19:26.329Z,5.72
2018-03-30T22:21:53.387Z,6.30
2018-03-30T22:24:20.380Z,6.22
2018-03-30T22:26:48.196Z,6.32
2018-03-30T22:29:15.184Z,6.72
2018-03-30T22:31:42.607Z,7.20
2018-03-30T22:34:09.629Z,7.10
2018-03-30T22:36:36.615Z,6.50
2018-03-30T22:39:03.726Z,6.35
2018-03-30T22:41:31.087Z,4.95
2018-03-30T22:43:58.371Z,6.47
2018-03-30T22:46:25.350Z,6.55
2018-03-30T22:48:52.343Z,6.05
2018-03-30T22:51:20.092Z,6.70
2018-03-30T22:53:47.093Z,6.65
2018-03-30T22:56:14.140Z,6.55
2018-03-30T22:58:41.912Z,5.62
2018-03-30T23:01:09.671Z,6.53
2018-03-30T23:03:37.422Z,8.30
2018-03-30T23:06:04.808Z,5.85
2018-03-30T23:08:31.787Z,8.40
2018-03-30T23:10:58.771Z,8.23
2018-03-30T23:13:26.150Z,9.00
2018-03-30T23:15:53.147Z,4.35
2018-03-30T23:18:20.196Z,8.88
2018-03-30T23:20:47.136Z,10.18
2018-03-30T23:23:14.113Z,8.80
2018-03-30T23:25:41.873Z,9.23
2018-03-30T23:28:09.277Z,9.73
2018-03-30T23:30:37.039Z,10.88
2018-03-30T23:33:04.520Z,9.75
2018-03-30T23:35:31.522Z,11.90
2018-03-30T23:37:58.495Z,13.10
2018-03-30T23:40:25.491Z,12.50
2018-03-30T23:42:53.294Z,12.60
2018-03-30T23:45:20.275Z,12.88
2018-03-30T23:47:47.652Z,14.23
2018-03-30T23:50:15.428Z,13.95
2018-03-30T23:52:43.216Z,14.45
2018-03-30T23:55:11.348Z,15.70
2018-03-30T23:57:39.115Z,16.52
